This is the latest recevied weather packets stored in our database for station/object 9W2RUT-G. If no packets are shown the sender has not sent any weather packets the latest 10 day(s).
| Time | Temp. | Humidity | Pressure | Rain* | Wind** | Luminosity | Snow |
|---|---|---|---|---|---|---|---|
| 1777122943 | 35.56° C | 38% | 1013.6 hPa | - | - | - | - |
| 1777122043 | 35.56° C | 37% | 1013.4 hPa | - | - | - | - |
| 1777121143 | 35.56° C | 36% | 1013.2 hPa | - | - | - | - |
| 1777120243 | 35° C | 36% | 1013.1 hPa | - | - | - | - |
| 1777119342 | 35.56° C | 34% | 1013.2 hPa | - | - | - | - |
| 1777118442 | 34.44° C | 34% | 1013 hPa | - | - | - | - |
| 1777117541 | 34.44° C | 34% | 1012.7 hPa | - | - | - | - |
| 1777116641 | 33.89° C | 32% | 1012.6 hPa | - | - | - | - |
| 1777115741 | 32.78° C | 31% | 1012.6 hPa | - | - | - | - |
| 1777114841 | 30.56° C | 26% | 1012.2 hPa | - | - | - | - |
| 1777113940 | 31.11° C | 26% | 1011.4 hPa | - | - | - | - |
| 1777113039 | 31.67° C | 25% | 1011 hPa | - | - | - | - |
| 1777112138 | 31.67° C | 25% | 1010.7 hPa | - | - | - | - |
| 1777111238 | 31.67° C | 25% | 1010.4 hPa | - | - | - | - |
| 1777110338 | 32.22° C | 25% | 1010 hPa | - | - | - | - |
| 1777109437 | 32.22° C | 26% | 1010.2 hPa | - | - | - | - |
| 1777108536 | 32.78° C | 25% | 1010.1 hPa | - | - | - | - |
| 1777108152 | 35° C | 27% | 1010 hPa | - | - | - | - |
| 1777107636 | 33.33° C | 25% | 1010.2 hPa | - | - | - | - |
| 1777106735 | 34.44° C | 26% | 1009.9 hPa | - | - | - | - |
| 1777105835 | 35° C | 27% | 1010 hPa | - | - | - | - |
| 1777104934 | 37.22° C | 28% | 1009.5 hPa | - | - | - | - |
| 1777104034 | 38.89° C | 38% | 1009.6 hPa | - | - | - | - |
| 1777103249 | 38.89° C | 38% | 1009.7 hPa | - | - | - | - |
| 1777103134 | 38.89° C | 38% | 1009.7 hPa | - | - | - | - |
* Rain since midnight (hover to see other rain measurements)
** Current wind speed in m/s (hover to see current wind gust speed)